sensor_id;sensor_type;location;lat;lon;timestamp;pressure;altitude;pressure_sealevel;temperature;humidity
51759;BME280;66684;47.568;18.734;2023-04-19T01:02:50;99457.75;;;10.03;90.57
51759;BME280;66684;47.568;18.734;2023-04-19T01:05:16;99460.59;;;9.88;92.99
51759;BME280;66684;47.568;18.734;2023-04-19T01:07:42;99456.12;;;9.84;93.15
51759;BME280;66684;47.568;18.734;2023-04-19T01:10:08;99452.28;;;9.95;93.02
51759;BME280;66684;47.568;18.734;2023-04-19T01:12:34;99444.50;;;9.93;93.53
51759;BME280;66684;47.568;18.734;2023-04-19T01:15:01;99440.88;;;9.90;94.31
51759;BME280;66684;47.568;18.734;2023-04-19T01:17:27;99442.88;;;9.75;96.45
51759;BME280;66684;47.568;18.734;2023-04-19T01:20:03;99431.19;;;9.84;96.40
51759;BME280;66684;47.568;18.734;2023-04-19T01:22:31;99432.28;;;9.89;97.03
51759;BME280;66684;47.568;18.734;2023-04-19T01:24:57;99425.47;;;9.91;98.73
51759;BME280;66684;47.568;18.734;2023-04-19T01:27:23;99427.63;;;9.81;100.00
51759;BME280;66684;47.568;18.734;2023-04-19T01:29:49;99425.72;;;9.77;100.00
51759;BME280;66684;47.568;18.734;2023-04-19T01:32:15;99425.34;;;9.67;100.00
51759;BME280;66684;47.568;18.734;2023-04-19T01:34:42;99422.97;;;9.51;100.00
51759;BME280;66684;47.568;18.734;2023-04-19T01:37:08;99422.41;;;9.37;100.00
51759;BME280;66684;47.568;18.734;2023-04-19T01:39:33;99420.53;;;9.35;100.00
51759;BME280;66684;47.568;18.734;2023-04-19T01:41:59;99425.59;;;9.32;100.00
51759;BME280;66684;47.568;18.734;2023-04-19T01:44:26;99414.87;;;9.23;100.00
51759;BME280;66684;47.568;18.734;2023-04-19T01:46:51;99412.13;;;9.18;100.00
51759;BME280;66684;47.568;18.734;2023-04-19T01:49:17;99418.84;;;8.95;100.00
51759;BME280;66684;47.568;18.734;2023-04-19T01:51:44;99415.84;;;8.86;100.00
51759;BME280;66684;47.568;18.734;2023-04-19T01:54:10;99407.44;;;8.90;100.00
51759;BME280;66684;47.568;18.734;2023-04-19T01:56:36;99411.38;;;8.82;100.00
51759;BME280;66684;47.568;18.734;2023-04-19T01:59:02;99413.25;;;8.86;100.00
51759;BME280;66684;47.568;18.734;2023-04-19T02:01:28;99416.06;;;8.90;100.00
51759;BME280;66684;47.568;18.734;2023-04-19T02:03:54;99415.06;;;8.68;100.00
51759;BME280;66684;47.568;18.734;2023-04-19T02:06:20;99400.06;;;8.78;100.00
51759;BME280;66684;47.568;18.734;2023-04-19T02:08:46;99398.84;;;8.89;100.00
51759;BME280;66684;47.568;18.734;2023-04-19T02:11:12;99399.19;;;8.78;100.00
51759;BME280;66684;47.568;18.734;2023-04-19T02:13:42;99399.44;;;8.84;100.00
51759;BME280;66684;47.568;18.734;2023-04-19T02:16:09;99392.03;;;8.91;100.00
51759;BME280;66684;47.568;18.734;2023-04-19T02:18:35;99393.56;;;8.86;100.00
51759;BME280;66684;47.568;18.734;2023-04-19T02:21:04;99391.44;;;8.97;100.00
51759;BME280;66684;47.568;18.734;2023-04-19T02:23:30;99390.91;;;8.85;100.00
51759;BME280;66684;47.568;18.734;2023-04-19T02:25:56;99397.69;;;8.83;100.00
51759;BME280;66684;47.568;18.734;2023-04-19T02:28:22;99394.22;;;8.82;100.00
51759;BME280;66684;47.568;18.734;2023-04-19T02:30:48;99389.09;;;8.63;100.00
51759;BME280;66684;47.568;18.734;2023-04-19T02:33:14;99395.75;;;8.22;100.00
51759;BME280;66684;47.568;18.734;2023-04-19T02:35:40;99387.97;;;8.21;100.00
51759;BME280;66684;47.568;18.734;2023-04-19T02:38:06;99386.50;;;8.26;100.00
51759;BME280;66684;47.568;18.734;2023-04-19T02:40:32;99375.59;;;8.31;100.00
51759;BME280;66684;47.568;18.734;2023-04-19T02:42:58;99373.09;;;8.33;100.00
51759;BME280;66684;47.568;18.734;2023-04-19T02:45:24;99377.06;;;8.44;100.00
51759;BME280;66684;47.568;18.734;2023-04-19T02:47:50;99377.28;;;8.49;100.00
51759;BME280;66684;47.568;18.734;2023-04-19T02:50:16;99373.28;;;8.36;100.00
51759;BME280;66684;47.568;18.734;2023-04-19T02:52:42;99371.66;;;8.38;100.00
51759;BME280;66684;47.568;18.734;2023-04-19T02:55:08;99370.00;;;8.40;100.00
51759;BME280;66684;47.568;18.734;2023-04-19T02:57:34;99367.38;;;8.38;100.00
51759;BME280;66684;47.568;18.734;2023-04-19T03:00:00;99361.16;;;8.35;100.00
51759;BME280;66684;47.568;18.734;2023-04-19T03:02:26;99360.87;;;8.29;100.00
51759;BME280;66684;47.568;18.734;2023-04-19T03:04:52;99362.84;;;8.34;100.00
51759;BME280;66684;47.568;18.734;2023-04-19T03:07:18;99357.38;;;8.27;100.00
51759;BME280;66684;47.568;18.734;2023-04-19T03:09:44;99358.91;;;8.23;100.00
51759;BME280;66684;47.568;18.734;2023-04-19T03:12:10;99351.41;;;8.28;100.00
51759;BME280;66684;47.568;18.734;2023-04-19T03:14:36;99355.75;;;8.29;100.00
51759;BME280;66684;47.568;18.734;2023-04-19T03:17:02;99346.53;;;8.34;100.00
51759;BME280;66684;47.568;18.734;2023-04-19T03:19:28;99349.00;;;8.31;100.00
51759;BME280;66684;47.568;18.734;2023-04-19T03:21:54;99350.63;;;7.74;100.00
51759;BME280;66684;47.568;18.734;2023-04-19T03:24:30;99342.31;;;7.44;100.00
51759;BME280;66684;47.568;18.734;2023-04-19T03:26:56;99348.47;;;7.47;100.00
51759;BME280;66684;47.568;18.734;2023-04-19T03:29:22;99347.19;;;7.55;100.00
51759;BME280;66684;47.568;18.734;2023-04-19T03:31:48;99339.94;;;7.66;100.00
51759;BME280;66684;47.568;18.734;2023-04-19T03:34:14;99341.56;;;7.82;100.00
51759;BME280;66684;47.568;18.734;2023-04-19T03:36:40;99335.78;;;7.86;100.00
51759;BME280;66684;47.568;18.734;2023-04-19T03:39:06;99332.81;;;7.96;100.00
51759;BME280;66684;47.568;18.734;2023-04-19T03:41:32;99340.53;;;7.78;100.00
51759;BME280;66684;47.568;18.734;2023-04-19T03:43:58;99338.50;;;7.71;100.00
51759;BME280;66684;47.568;18.734;2023-04-19T03:46:24;99339.53;;;7.75;100.00
51759;BME280;66684;47.568;18.734;2023-04-19T03:48:50;99337.03;;;7.76;100.00
51759;BME280;66684;47.568;18.734;2023-04-19T03:51:17;99331.81;;;7.75;100.00
51759;BME280;66684;47.568;18.734;2023-04-19T03:53:43;99333.34;;;7.89;100.00
51759;BME280;66684;47.568;18.734;2023-04-19T03:56:09;99327.78;;;7.80;100.00
51759;BME280;66684;47.568;18.734;2023-04-19T03:58:35;99327.91;;;7.83;100.00
51759;BME280;66684;47.568;18.734;2023-04-19T04:01:02;99326.72;;;7.94;100.00
51759;BME280;66684;47.568;18.734;2023-04-19T04:03:28;99328.34;;;7.92;100.00
51759;BME280;66684;47.568;18.734;2023-04-19T04:05:54;99332.44;;;8.06;100.00
51759;BME280;66684;47.568;18.734;2023-04-19T04:08:19;99322.25;;;8.09;100.00
51759;BME280;66684;47.568;18.734;2023-04-19T04:10:45;99327.63;;;8.14;100.00
51759;BME280;66684;47.568;18.734;2023-04-19T04:13:11;99325.59;;;8.26;100.00
51759;BME280;66684;47.568;18.734;2023-04-19T04:15:37;99322.69;;;8.36;100.00
51759;BME280;66684;47.568;18.734;2023-04-19T04:18:04;99326.12;;;8.56;100.00
51759;BME280;66684;47.568;18.734;2023-04-19T04:20:29;99319.06;;;8.52;100.00
51759;BME280;66684;47.568;18.734;2023-04-19T04:22:56;99321.09;;;8.59;100.00
51759;BME280;66684;47.568;18.734;2023-04-19T04:25:22;99321.09;;;8.59;100.00
51759;BME280;66684;47.568;18.734;2023-04-19T04:27:51;99318.13;;;8.70;100.00
51759;BME280;66684;47.568;18.734;2023-04-19T04:30:17;99321.69;;;8.73;100.00
51759;BME280;66684;47.568;18.734;2023-04-19T04:32:43;99319.75;;;8.68;100.00
51759;BME280;66684;47.568;18.734;2023-04-19T04:35:10;99318.03;;;8.87;100.00
51759;BME280;66684;47.568;18.734;2023-04-19T04:37:36;99328.09;;;9.02;100.00
51759;BME280;66684;47.568;18.734;2023-04-19T04:40:02;99327.66;;;9.12;100.00
51759;BME280;66684;47.568;18.734;2023-04-19T04:42:31;99327.53;;;9.09;100.00
51759;BME280;66684;47.568;18.734;2023-04-19T04:44:58;99320.19;;;9.18;100.00
51759;BME280;66684;47.568;18.734;2023-04-19T04:47:30;99323.56;;;9.17;100.00
51759;BME280;66684;47.568;18.734;2023-04-19T04:49:57;99322.44;;;9.32;99.57
51759;BME280;66684;47.568;18.734;2023-04-19T04:52:23;99325.63;;;9.47;97.21
51759;BME280;66684;47.568;18.734;2023-04-19T04:54:49;99326.12;;;9.59;95.55
51759;BME280;66684;47.568;18.734;2023-04-19T04:57:15;99325.25;;;9.59;97.00
51759;BME280;66684;47.568;18.734;2023-04-19T04:59:41;99321.78;;;9.58;97.29
51759;BME280;66684;47.568;18.734;2023-04-19T05:02:07;99312.91;;;9.72;96.54
51759;BME280;66684;47.568;18.734;2023-04-19T05:04:33;99318.59;;;9.86;93.17
51759;BME280;66684;47.568;18.734;2023-04-19T05:06:58;99319.94;;;9.99;92.80
51759;BME280;66684;47.568;18.734;2023-04-19T05:09:24;99317.66;;;10.07;91.61
51759;BME280;66684;47.568;18.734;2023-04-19T05:11:50;99315.59;;;10.20;88.29
51759;BME280;66684;47.568;18.734;2023-04-19T05:14:16;99309.97;;;10.31;89.59
51759;BME280;66684;47.568;18.734;2023-04-19T05:16:42;99318.28;;;10.46;88.93
51759;BME280;66684;47.568;18.734;2023-04-19T05:19:08;99324.28;;;10.22;91.58
51759;BME280;66684;47.568;18.734;2023-04-19T05:21:34;99319.66;;;10.14;94.37
51759;BME280;66684;47.568;18.734;2023-04-19T05:24:00;99323.56;;;10.04;96.79
51759;BME280;66684;47.568;18.734;2023-04-19T05:26:26;99320.75;;;9.98;98.20
51759;BME280;66684;47.568;18.734;2023-04-19T05:28:52;99314.78;;;9.99;99.21
51759;BME280;66684;47.568;18.734;2023-04-19T05:31:18;99319.00;;;9.97;99.63
51759;BME280;66684;47.568;18.734;2023-04-19T05:33:45;99312.12;;;9.97;100.00
51759;BME280;66684;47.568;18.734;2023-04-19T05:36:11;99314.87;;;9.80;100.00
51759;BME280;66684;47.568;18.734;2023-04-19T05:38:37;99309.16;;;9.87;100.00
51759;BME280;66684;47.568;18.734;2023-04-19T05:41:03;99311.16;;;9.94;100.00
51759;BME280;66684;47.568;18.734;2023-04-19T05:43:30;99312.09;;;9.96;100.00
51759;BME280;66684;47.568;18.734;2023-04-19T05:45:56;99310.38;;;9.96;100.00
51759;BME280;66684;47.568;18.734;2023-04-19T05:48:22;99304.44;;;9.99;100.00
51759;BME280;66684;47.568;18.734;2023-04-19T05:50:48;99306.00;;;9.94;100.00
51759;BME280;66684;47.568;18.734;2023-04-19T05:53:14;99300.69;;;9.91;100.00
51759;BME280;66684;47.568;18.734;2023-04-19T05:55:40;99304.88;;;9.87;100.00
51759;BME280;66684;47.568;18.734;2023-04-19T05:58:06;99306.22;;;10.00;100.00
51759;BME280;66684;47.568;18.734;2023-04-19T06:00:32;99305.13;;;10.17;99.13
51759;BME280;66684;47.568;18.734;2023-04-19T06:02:58;99302.63;;;10.19;98.73
51759;BME280;66684;47.568;18.734;2023-04-19T06:05:24;99312.19;;;10.44;97.06
51759;BME280;66684;47.568;18.734;2023-04-19T06:07:50;99304.75;;;10.53;96.61
51759;BME280;66684;47.568;18.734;2023-04-19T06:10:16;99304.31;;;10.65;95.76
51759;BME280;66684;47.568;18.734;2023-04-19T06:12:42;99303.44;;;10.64;98.57
51759;BME280;66684;47.568;18.734;2023-04-19T06:15:08;99304.53;;;10.71;99.55
51759;BME280;66684;47.568;18.734;2023-04-19T06:17:34;99298.81;;;10.79;100.00
51759;BME280;66684;47.568;18.734;2023-04-19T06:20:00;99300.97;;;10.93;99.78
51759;BME280;66684;47.568;18.734;2023-04-19T06:22:26;99302.84;;;10.97;98.11
51759;BME280;66684;47.568;18.734;2023-04-19T06:24:52;99298.19;;;11.12;98.52
51759;BME280;66684;47.568;18.734;2023-04-19T06:27:18;99289.00;;;11.20;96.44
51759;BME280;66684;47.568;18.734;2023-04-19T06:29:44;99292.47;;;11.21;93.54
51759;BME280;66684;47.568;18.734;2023-04-19T06:32:10;99289.44;;;11.34;92.35
51759;BME280;66684;47.568;18.734;2023-04-19T06:34:36;99292.25;;;11.69;88.32
51759;BME280;66684;47.568;18.734;2023-04-19T06:37:02;99295.97;;;11.50;90.86
51759;BME280;66684;47.568;18.734;2023-04-19T06:39:28;99296.47;;;11.38;90.56
51759;BME280;66684;47.568;18.734;2023-04-19T06:41:54;99295.09;;;11.49;88.70
51759;BME280;66684;47.568;18.734;2023-04-19T06:44:20;99288.84;;;11.70;84.51
51759;BME280;66684;47.568;18.734;2023-04-19T06:46:46;99285.41;;;11.98;83.46
51759;BME280;66684;47.568;18.734;2023-04-19T06:49:11;99298.91;;;11.87;88.50
51759;BME280;66684;47.568;18.734;2023-04-19T06:51:41;99296.03;;;11.80;92.02
51759;BME280;66684;47.568;18.734;2023-04-19T06:54:07;99298.47;;;11.75;91.55
51759;BME280;66684;47.568;18.734;2023-04-19T06:56:46;99293.63;;;11.84;94.75
51759;BME280;66684;47.568;18.734;2023-04-19T06:59:13;99285.22;;;11.65;90.70
51759;BME280;66684;47.568;18.734;2023-04-19T07:01:41;99292.84;;;11.60;95.61
51759;BME280;66684;47.568;18.734;2023-04-19T07:04:07;99294.97;;;11.73;97.12
51759;BME280;66684;47.568;18.734;2023-04-19T07:06:34;99290.94;;;11.81;99.08
51759;BME280;66684;47.568;18.734;2023-04-19T07:09:01;99289.25;;;11.82;94.93
51759;BME280;66684;47.568;18.734;2023-04-19T07:11:28;99291.87;;;11.83;97.55
51759;BME280;66684;47.568;18.734;2023-04-19T07:13:54;99284.75;;;12.05;93.21
51759;BME280;66684;47.568;18.734;2023-04-19T07:16:21;99282.53;;;12.17;93.52
51759;BME280;66684;47.568;18.734;2023-04-19T07:18:47;99284.44;;;12.24;92.55
51759;BME280;66684;47.568;18.734;2023-04-19T07:21:13;99280.06;;;12.52;93.44
51759;BME280;66684;47.568;18.734;2023-04-19T07:23:39;99276.97;;;12.65;89.36
51759;BME280;66684;47.568;18.734;2023-04-19T07:26:05;99274.25;;;12.93;80.77
51759;BME280;66684;47.568;18.734;2023-04-19T07:28:32;99269.37;;;13.06;83.99
51759;BME280;66684;47.568;18.734;2023-04-19T07:30:58;99273.00;;;12.79;83.20
51759;BME280;66684;47.568;18.734;2023-04-19T07:33:26;99279.94;;;12.80;83.65
51759;BME280;66684;47.568;18.734;2023-04-19T07:35:53;99273.91;;;12.81;85.39
51759;BME280;66684;47.568;18.734;2023-04-19T07:38:19;99274.09;;;12.56;87.27
51759;BME280;66684;47.568;18.734;2023-04-19T07:40:45;99280.12;;;12.55;87.31
51759;BME280;66684;47.568;18.734;2023-04-19T07:43:11;99275.44;;;12.73;87.91
51759;BME280;66684;47.568;18.734;2023-04-19T07:45:36;99274.06;;;12.87;84.66
51759;BME280;66684;47.568;18.734;2023-04-19T07:48:03;99272.81;;;13.05;84.37
51759;BME280;66684;47.568;18.734;2023-04-19T07:50:29;99277.94;;;13.02;84.56
51759;BME280;66684;47.568;18.734;2023-04-19T07:52:55;99276.16;;;13.01;85.27
51759;BME280;66684;47.568;18.734;2023-04-19T07:55:21;99270.72;;;12.90;87.63
51759;BME280;66684;47.568;18.734;2023-04-19T07:57:48;99268.75;;;13.14;85.91
51759;BME280;66684;47.568;18.734;2023-04-19T08:00:15;99270.69;;;13.23;87.23
51759;BME280;66684;47.568;18.734;2023-04-19T08:02:44;99275.50;;;13.08;89.31
51759;BME280;66684;47.568;18.734;2023-04-19T08:05:11;99268.81;;;13.19;84.90
51759;BME280;66684;47.568;18.734;2023-04-19T08:07:38;99268.09;;;13.23;82.89
51759;BME280;66684;47.568;18.734;2023-04-19T08:10:05;99279.91;;;13.12;87.06
51759;BME280;66684;47.568;18.734;2023-04-19T08:12:32;99277.84;;;12.99;82.93
51759;BME280;66684;47.568;18.734;2023-04-19T08:14:58;99275.69;;;13.17;80.66
51759;BME280;66684;47.568;18.734;2023-04-19T08:17:24;99270.72;;;12.90;85.27
51759;BME280;66684;47.568;18.734;2023-04-19T08:19:49;99267.31;;;12.92;85.84
51759;BME280;66684;47.568;18.734;2023-04-19T08:22:16;99262.34;;;13.35;84.95
51759;BME280;66684;47.568;18.734;2023-04-19T08:24:43;99264.25;;;13.43;84.75
51759;BME280;66684;47.568;18.734;2023-04-19T08:27:09;99262.94;;;13.61;81.76
51759;BME280;66684;47.568;18.734;2023-04-19T08:29:35;99253.53;;;13.66;80.90
51759;BME280;66684;47.568;18.734;2023-04-19T08:32:04;99264.22;;;13.40;81.00
51759;BME280;66684;47.568;18.734;2023-04-19T08:34:30;99263.50;;;13.47;80.07
51759;BME280;66684;47.568;18.734;2023-04-19T08:36:56;99254.87;;;13.48;77.96
51759;BME280;66684;47.568;18.734;2023-04-19T08:39:22;99247.88;;;13.84;74.76
51759;BME280;66684;47.568;18.734;2023-04-19T08:41:48;99251.94;;;13.71;74.35
51759;BME280;66684;47.568;18.734;2023-04-19T08:44:15;99255.88;;;13.55;73.82
51759;BME280;66684;47.568;18.734;2023-04-19T08:46:43;99249.38;;;13.72;76.09
51759;BME280;66684;47.568;18.734;2023-04-19T08:49:10;99243.84;;;13.98;74.26
51759;BME280;66684;47.568;18.734;2023-04-19T08:51:37;99235.50;;;14.13;71.72
51759;BME280;66684;47.568;18.734;2023-04-19T08:54:05;99242.31;;;14.08;72.72
51759;BME280;66684;47.568;18.734;2023-04-19T08:56:32;99236.06;;;14.40;70.80
51759;BME280;66684;47.568;18.734;2023-04-19T08:58:58;99226.88;;;14.57;74.64
51759;BME280;66684;47.568;18.734;2023-04-19T09:01:24;99229.66;;;14.67;71.99
51759;BME280;66684;47.568;18.734;2023-04-19T09:03:50;99229.53;;;14.61;70.44
51759;BME280;66684;47.568;18.734;2023-04-19T09:06:16;99229.97;;;14.85;72.50
51759;BME280;66684;47.568;18.734;2023-04-19T09:08:42;99225.63;;;14.84;71.45
51759;BME280;66684;47.568;18.734;2023-04-19T09:11:08;99229.63;;;14.65;69.08
51759;BME280;66684;47.568;18.734;2023-04-19T09:13:34;99234.72;;;14.61;70.31
51759;BME280;66684;47.568;18.734;2023-04-19T09:16:03;99223.78;;;14.78;70.56
51759;BME280;66684;47.568;18.734;2023-04-19T09:18:29;99226.56;;;14.89;70.23
51759;BME280;66684;47.568;18.734;2023-04-19T09:20:55;99229.22;;;14.91;70.72
51759;BME280;66684;47.568;18.734;2023-04-19T09:23:26;99219.03;;;15.04;69.01
51759;BME280;66684;47.568;18.734;2023-04-19T09:25:57;99220.84;;;15.08;69.15
51759;BME280;66684;47.568;18.734;2023-04-19T09:28:27;99223.25;;;14.96;70.10
51759;BME280;66684;47.568;18.734;2023-04-19T09:30:54;99224.25;;;14.57;70.99
51759;BME280;66684;47.568;18.734;2023-04-19T09:33:31;99228.16;;;14.81;71.40
51759;BME280;66684;47.568;18.734;2023-04-19T09:35:58;99226.94;;;14.61;73.20
51759;BME280;66684;47.568;18.734;2023-04-19T09:38:24;99228.66;;;14.60;72.23
51759;BME280;66684;47.568;18.734;2023-04-19T09:40:51;99232.66;;;14.44;74.17
51759;BME280;66684;47.568;18.734;2023-04-19T09:43:23;99232.75;;;14.47;72.00
51759;BME280;66684;47.568;18.734;2023-04-19T09:45:51;99229.66;;;14.24;73.95
51759;BME280;66684;47.568;18.734;2023-04-19T09:48:17;99235.50;;;14.13;75.30
51759;BME280;66684;47.568;18.734;2023-04-19T09:53:21;99230.63;;;14.28;81.94
51759;BME280;66684;47.568;18.734;2023-04-19T09:55:47;99227.91;;;14.66;82.38
51759;BME280;66684;47.568;18.734;2023-04-19T09:58:17;99227.38;;;14.85;76.85
51759;BME280;66684;47.568;18.734;2023-04-19T10:00:44;99229.53;;;15.09;80.51
51759;BME280;66684;47.568;18.734;2023-04-19T10:03:13;99213.03;;;15.08;75.86
51759;BME280;66684;47.568;18.734;2023-04-19T10:05:41;99219.34;;;15.26;80.55
51759;BME280;66684;47.568;18.734;2023-04-19T10:08:08;99209.22;;;15.44;76.82
51759;BME280;66684;47.568;18.734;2023-04-19T10:10:35;99212.62;;;16.01;70.99
51759;BME280;66684;47.568;18.734;2023-04-19T10:13:03;99206.38;;;15.86;70.66
51759;BME280;66684;47.568;18.734;2023-04-19T10:15:30;99210.22;;;16.16;68.43
51759;BME280;66684;47.568;18.734;2023-04-19T10:17:57;99208.44;;;15.48;73.99
51759;BME280;66684;47.568;18.734;2023-04-19T10:20:34;99211.56;;;15.85;71.49
51759;BME280;66684;47.568;18.734;2023-04-19T10:23:06;99205.84;;;16.13;72.76
51759;BME280;66684;47.568;18.734;2023-04-19T10:25:32;99204.38;;;16.40;68.92
51759;BME280;66684;47.568;18.734;2023-04-19T10:27:58;99207.78;;;16.31;67.53
51759;BME280;66684;47.568;18.734;2023-04-19T10:30:24;99200.56;;;16.09;70.56
51759;BME280;66684;47.568;18.734;2023-04-19T10:32:58;99207.50;;;16.08;72.16
51759;BME280;66684;47.568;18.734;2023-04-19T10:35:26;99204.00;;;16.03;69.87
51759;BME280;66684;47.568;18.734;2023-04-19T10:41:01;99206.59;;;15.41;74.62
51759;BME280;66684;47.568;18.734;2023-04-19T10:43:32;99206.88;;;15.03;79.87
51759;BME280;66684;47.568;18.734;2023-04-19T10:48:55;99205.91;;;14.48;82.04
51759;BME280;66684;47.568;18.734;2023-04-19T10:51:26;99210.69;;;14.74;79.35
51759;BME280;66684;47.568;18.734;2023-04-19T10:53:57;99208.87;;;14.70;82.85
51759;BME280;66684;47.568;18.734;2023-04-19T11:04:18;99200.41;;;14.80;84.74
51759;BME280;66684;47.568;18.734;2023-04-19T11:09:23;99203.19;;;14.45;83.72
51759;BME280;66684;47.568;18.734;2023-04-19T11:11:49;99200.75;;;14.51;83.26
51759;BME280;66684;47.568;18.734;2023-04-19T11:14:16;99200.09;;;14.62;84.38
51759;BME280;66684;47.568;18.734;2023-04-19T11:16:42;99194.41;;;14.37;85.61
51759;BME280;66684;47.568;18.734;2023-04-19T11:19:08;99191.31;;;14.56;85.15
51759;BME280;66684;47.568;18.734;2023-04-19T11:21:39;99197.12;;;14.45;85.00
51759;BME280;66684;47.568;18.734;2023-04-19T11:24:08;99196.97;;;14.36;86.59
51759;BME280;66684;47.568;18.734;2023-04-19T11:26:35;99195.50;;;14.47;85.07
51759;BME280;66684;47.568;18.734;2023-04-19T11:29:01;99191.81;;;14.39;85.11
51759;BME280;66684;47.568;18.734;2023-04-19T11:31:27;99200.81;;;14.53;84.01
51759;BME280;66684;47.568;18.734;2023-04-19T11:33:54;99191.72;;;14.78;84.02
51759;BME280;66684;47.568;18.734;2023-04-19T11:36:20;99193.59;;;14.88;82.68
51759;BME280;66684;47.568;18.734;2023-04-19T11:38:47;99188.47;;;14.91;80.12
51759;BME280;66684;47.568;18.734;2023-04-19T11:41:13;99187.44;;;14.83;77.11
51759;BME280;66684;47.568;18.734;2023-04-19T11:43:39;99186.06;;;15.03;77.67
51759;BME280;66684;47.568;18.734;2023-04-19T11:46:07;99183.75;;;15.22;79.67
51759;BME280;66684;47.568;18.734;2023-04-19T11:48:34;99185.00;;;14.92;78.33
51759;BME280;66684;47.568;18.734;2023-04-19T11:51:00;99184.56;;;14.65;78.96
51759;BME280;66684;47.568;18.734;2023-04-19T11:53:27;99186.41;;;14.72;81.17
51759;BME280;66684;47.568;18.734;2023-04-19T11:55:56;99186.09;;;15.06;74.13
51759;BME280;66684;47.568;18.734;2023-04-19T11:58:29;99179.03;;;14.98;74.95
51759;BME280;66684;47.568;18.734;2023-04-19T12:01:06;99176.13;;;14.81;74.42
51759;BME280;66684;47.568;18.734;2023-04-19T12:03:33;99179.50;;;14.74;75.50
51759;BME280;66684;47.568;18.734;2023-04-19T12:06:00;99179.16;;;14.55;79.34
51759;BME280;66684;47.568;18.734;2023-04-19T12:08:37;99176.56;;;14.55;76.34
51759;BME280;66684;47.568;18.734;2023-04-19T12:11:05;99172.34;;;14.61;75.45
51759;BME280;66684;47.568;18.734;2023-04-19T12:13:31;99170.03;;;14.77;75.76
51759;BME280;66684;47.568;18.734;2023-04-19T12:15:58;99160.63;;;14.87;73.54
51759;BME280;66684;47.568;18.734;2023-04-19T12:18:24;99170.13;;;14.83;75.62
51759;BME280;66684;47.568;18.734;2023-04-19T12:20:51;99159.41;;;15.20;71.05
51759;BME280;66684;47.568;18.734;2023-04-19T12:23:18;99163.63;;;15.13;70.44
51759;BME280;66684;47.568;18.734;2023-04-19T12:25:46;99162.03;;;14.67;72.92
51759;BME280;66684;47.568;18.734;2023-04-19T12:28:13;99159.53;;;14.71;73.00
51759;BME280;66684;47.568;18.734;2023-04-19T12:30:39;99169.28;;;14.86;74.21
51759;BME280;66684;47.568;18.734;2023-04-19T12:33:06;99162.37;;;14.88;75.58
51759;BME280;66684;47.568;18.734;2023-04-19T12:35:32;99158.91;;;14.89;80.75
51759;BME280;66684;47.568;18.734;2023-04-19T12:37:59;99165.69;;;14.78;85.51
51759;BME280;66684;47.568;18.734;2023-04-19T12:40:26;99166.94;;;14.51;86.17
51759;BME280;66684;47.568;18.734;2023-04-19T12:42:52;99179.31;;;14.19;87.03
51759;BME280;66684;47.568;18.734;2023-04-19T12:45:19;99169.38;;;13.97;88.24
51759;BME280;66684;47.568;18.734;2023-04-19T12:47:46;99183.78;;;13.83;94.22
51759;BME280;66684;47.568;18.734;2023-04-19T12:50:14;99166.75;;;13.95;96.86
51759;BME280;66684;47.568;18.734;2023-04-19T12:52:41;99169.66;;;14.12;95.60
51759;BME280;66684;47.568;18.734;2023-04-19T12:55:08;99164.03;;;13.89;96.87
51759;BME280;66684;47.568;18.734;2023-04-19T12:57:33;99170.91;;;13.87;98.66
51759;BME280;66684;47.568;18.734;2023-04-19T12:59:59;99168.28;;;13.86;100.00
51759;BME280;66684;47.568;18.734;2023-04-19T13:02:25;99167.31;;;13.81;99.87
51759;BME280;66684;47.568;18.734;2023-04-19T13:04:51;99171.53;;;13.75;100.00
51759;BME280;66684;47.568;18.734;2023-04-19T13:07:17;99173.78;;;13.59;100.00
51759;BME280;66684;47.568;18.734;2023-04-19T13:09:43;99171.63;;;13.80;100.00
51759;BME280;66684;47.568;18.734;2023-04-19T13:12:09;99172.81;;;13.96;99.72
51759;BME280;66684;47.568;18.734;2023-04-19T13:14:35;99165.19;;;14.03;100.00
51759;BME280;66684;47.568;18.734;2023-04-19T13:17:01;99168.56;;;13.99;97.91
51759;BME280;66684;47.568;18.734;2023-04-19T13:19:27;99167.66;;;13.97;96.80
51759;BME280;66684;47.568;18.734;2023-04-19T13:21:53;99159.53;;;13.82;97.36
51759;BME280;66684;47.568;18.734;2023-04-19T13:24:18;99172.66;;;13.88;97.96
51759;BME280;66684;47.568;18.734;2023-04-19T13:26:44;99169.53;;;14.04;97.85
51759;BME280;66684;47.568;18.734;2023-04-19T13:29:10;99169.03;;;14.24;96.18
51759;BME280;66684;47.568;18.734;2023-04-19T13:31:37;99161.44;;;14.35;93.49
51759;BME280;66684;47.568;18.734;2023-04-19T13:34:02;99170.03;;;14.32;91.92
51759;BME280;66684;47.568;18.734;2023-04-19T13:36:28;99160.09;;;14.55;93.53
51759;BME280;66684;47.568;18.734;2023-04-19T13:38:54;99160.41;;;14.72;93.81
51759;BME280;66684;47.568;18.734;2023-04-19T13:41:20;99165.84;;;14.89;89.53
51759;BME280;66684;47.568;18.734;2023-04-19T13:43:46;99153.25;;;14.60;87.85
51759;BME280;66684;47.568;18.734;2023-04-19T13:46:12;99157.69;;;14.66;85.99
51759;BME280;66684;47.568;18.734;2023-04-19T13:48:38;99148.50;;;14.89;88.40
51759;BME280;66684;47.568;18.734;2023-04-19T13:51:05;99149.69;;;15.08;87.17
51759;BME280;66684;47.568;18.734;2023-04-19T13:53:31;99153.25;;;15.15;85.22
51759;BME280;66684;47.568;18.734;2023-04-19T13:55:57;99150.62;;;15.15;83.28
51759;BME280;66684;47.568;18.734;2023-04-19T13:58:23;99156.38;;;14.92;84.26
51759;BME280;66684;47.568;18.734;2023-04-19T14:00:50;99149.75;;;15.11;81.74
51759;BME280;66684;47.568;18.734;2023-04-19T14:03:16;99149.00;;;15.20;84.27
51759;BME280;66684;47.568;18.734;2023-04-19T14:05:42;99154.19;;;15.20;82.66
51759;BME280;66684;47.568;18.734;2023-04-19T14:08:08;99157.75;;;15.25;83.29